createdAt,value
2018-05-25T00:00:39.356Z,17.37
2018-05-25T00:03:07.371Z,17.38
2018-05-25T00:05:35.410Z,17.45
2018-05-25T00:08:03.406Z,17.38
2018-05-25T00:10:31.442Z,17.15
2018-05-25T00:12:59.582Z,17.03
2018-05-25T00:15:27.615Z,17.11
2018-05-25T00:17:56.052Z,17.14
2018-05-25T00:20:24.091Z,17.22
2018-05-25T00:22:52.106Z,17.17
2018-05-25T00:25:20.310Z,17.28
2018-05-25T00:27:48.370Z,17.20
2018-05-25T00:30:16.356Z,17.37
2018-05-25T00:32:44.447Z,17.37
2018-05-25T00:35:12.477Z,17.20
2018-05-25T00:37:40.873Z,17.20
2018-05-25T00:40:09.131Z,17.21
2018-05-25T00:42:37.156Z,17.16
2018-05-25T00:45:05.166Z,17.28
2018-05-25T00:47:33.647Z,17.21
2018-05-25T00:50:01.650Z,17.22
2018-05-25T00:52:29.684Z,17.17
2018-05-25T00:55:09.340Z,17.24
2018-05-25T00:57:37.351Z,17.21
2018-05-25T01:00:05.359Z,17.24
2018-05-25T01:02:33.563Z,17.15
2018-05-25T01:05:01.736Z,17.19
2018-05-25T01:07:29.761Z,17.16
2018-05-25T01:09:57.764Z,17.17
2018-05-25T01:12:25.883Z,17.17
2018-05-25T01:14:57.603Z,17.21
2018-05-25T01:17:25.880Z,17.08
2018-05-25T01:19:53.886Z,17.16
2018-05-25T01:22:21.907Z,17.19
2018-05-25T01:24:50.095Z,17.12
2018-05-25T01:27:18.120Z,17.00
2018-05-25T01:29:46.420Z,17.06
2018-05-25T01:32:14.512Z,17.03
2018-05-25T01:34:42.532Z,16.95
2018-05-25T01:37:10.801Z,16.97
2018-05-25T01:39:38.992Z,16.89
2018-05-25T01:42:07.010Z,16.93
2018-05-25T01:44:35.019Z,16.93
2018-05-25T01:47:03.043Z,16.92
2018-05-25T01:49:31.317Z,16.82
2018-05-25T01:51:59.339Z,16.80
2018-05-25T01:54:27.348Z,16.79
2018-05-25T01:56:55.456Z,16.82
2018-05-25T01:59:23.467Z,16.76
2018-05-25T02:01:51.491Z,16.77
2018-05-25T02:04:20.530Z,16.80
2018-05-25T02:06:48.552Z,16.85
2018-05-25T02:09:16.574Z,16.92
2018-05-25T02:11:44.798Z,16.82
2018-05-25T02:14:12.803Z,16.90
2018-05-25T02:16:40.831Z,16.93
2018-05-25T02:19:08.841Z,16.88
2018-05-25T02:21:36.851Z,16.99
2018-05-25T02:24:05.032Z,17.01
2018-05-25T02:26:33.137Z,16.98
2018-05-25T02:29:01.181Z,16.94
2018-05-25T02:31:29.288Z,16.82
2018-05-25T02:33:57.811Z,16.86
2018-05-25T02:36:26.627Z,16.82
2018-05-25T02:38:54.655Z,16.88
2018-05-25T02:41:22.834Z,16.98
2018-05-25T02:43:50.863Z,16.99
2018-05-25T02:46:19.103Z,16.99
2018-05-25T02:48:47.379Z,17.07
2018-05-25T02:51:15.474Z,17.15
2018-05-25T02:53:43.724Z,17.27
2018-05-25T02:56:11.812Z,17.19
2018-05-25T02:58:39.967Z,17.13
2018-05-25T03:01:08.251Z,17.11
2018-05-25T03:03:36.523Z,17.19
2018-05-25T03:06:04.784Z,17.18
2018-05-25T03:08:33.509Z,17.28
2018-05-25T03:11:01.555Z,17.38
2018-05-25T03:13:29.540Z,17.32
2018-05-25T03:15:57.801Z,17.38
2018-05-25T03:18:25.825Z,17.44
2018-05-25T03:20:54.044Z,17.37
2018-05-25T03:23:22.076Z,17.40
2018-05-25T03:25:50.163Z,17.47
2018-05-25T03:28:18.179Z,17.50
2018-05-25T03:30:46.436Z,17.41
2018-05-25T03:33:14.719Z,17.41
2018-05-25T03:35:42.721Z,17.43
2018-05-25T03:38:10.948Z,17.35
2018-05-25T03:40:38.959Z,17.23
2018-05-25T03:43:06.980Z,17.26
2018-05-25T03:45:35.270Z,17.36
2018-05-25T03:48:03.304Z,17.37
2018-05-25T03:50:31.315Z,17.36
2018-05-25T03:52:59.343Z,17.27
2018-05-25T03:55:27.374Z,17.27
2018-05-25T03:57:55.400Z,17.26
2018-05-25T04:00:35.257Z,17.19
2018-05-25T04:03:03.439Z,17.26
2018-05-25T04:05:31.715Z,17.22
2018-05-25T04:07:59.718Z,16.99
2018-05-25T04:10:28.775Z,17.24
2018-05-25T04:12:56.775Z,17.06
2018-05-25T04:15:24.807Z,17.28
2018-05-25T04:17:53.698Z,17.37
2018-05-25T04:20:21.719Z,17.43
2018-05-25T04:22:49.740Z,17.50
2018-05-25T04:25:17.759Z,17.25
2018-05-25T04:27:45.831Z,17.41
2018-05-25T04:30:13.861Z,17.45
2018-05-25T04:32:41.866Z,17.25
2018-05-25T04:35:09.896Z,17.28
2018-05-25T04:37:37.899Z,17.32
2018-05-25T04:40:06.043Z,17.38
2018-05-25T04:42:34.050Z,17.62
2018-05-25T04:45:02.077Z,17.70
2018-05-25T04:47:30.083Z,17.79
2018-05-25T04:49:58.121Z,17.83
2018-05-25T04:52:26.131Z,17.98
2018-05-25T04:54:57.883Z,18.09
2018-05-25T04:57:25.900Z,18.15
2018-05-25T04:59:53.922Z,18.06
2018-05-25T05:02:21.930Z,17.81
2018-05-25T05:04:49.955Z,17.78
2018-05-25T05:07:17.975Z,17.89
2018-05-25T05:09:45.999Z,18.06
2018-05-25T05:12:14.064Z,18.19
2018-05-25T05:14:42.334Z,18.40
2018-05-25T05:17:10.330Z,18.41
2018-05-25T05:19:38.357Z,18.38
2018-05-25T05:22:07.223Z,18.32
2018-05-25T05:24:35.255Z,18.29
2018-05-25T05:27:03.719Z,18.04
2018-05-25T05:29:31.862Z,18.26
2018-05-25T05:32:00.035Z,18.58
2018-05-25T05:34:28.216Z,18.10
2018-05-25T05:36:56.475Z,18.38
2018-05-25T05:39:24.595Z,18.48
2018-05-25T05:41:52.606Z,18.32
2018-05-25T05:44:20.671Z,18.31
2018-05-25T05:46:48.721Z,18.21
2018-05-25T05:49:16.720Z,18.05
2018-05-25T05:51:44.760Z,18.25
2018-05-25T05:54:12.932Z,18.25
2018-05-25T05:56:40.930Z,18.27
2018-05-25T05:59:08.940Z,18.69
2018-05-25T06:01:36.959Z,18.93
2018-05-25T06:04:04.963Z,19.11
2018-05-25T06:06:32.991Z,18.71
2018-05-25T06:09:01.016Z,18.99
2018-05-25T06:11:29.042Z,19.15
2018-05-25T06:13:57.419Z,18.73
2018-05-25T06:16:25.446Z,19.06
2018-05-25T06:18:54.226Z,19.24
2018-05-25T06:21:22.323Z,19.24
2018-05-25T06:23:50.327Z,18.93
2018-05-25T06:26:18.527Z,18.93
2018-05-25T06:28:46.808Z,18.95
2018-05-25T06:31:14.860Z,18.94
2018-05-25T06:33:42.927Z,19.06
2018-05-25T06:36:11.226Z,19.39
2018-05-25T06:38:39.311Z,19.40
2018-05-25T06:41:07.572Z,19.76
2018-05-25T06:43:36.466Z,20.24
2018-05-25T06:46:04.735Z,20.10
2018-05-25T06:48:32.744Z,19.81
2018-05-25T06:51:01.543Z,19.98
2018-05-25T06:53:29.759Z,20.31
2018-05-25T06:55:57.801Z,20.56
2018-05-25T06:58:25.836Z,20.33
2018-05-25T07:00:53.836Z,20.31
2018-05-25T07:03:21.908Z,20.56
2018-05-25T07:05:50.119Z,21.51
2018-05-25T07:08:18.135Z,21.10
2018-05-25T07:10:46.167Z,22.27
2018-05-25T07:13:14.177Z,21.91
2018-05-25T07:15:42.208Z,22.69
2018-05-25T07:18:10.228Z,22.00
2018-05-25T07:20:38.239Z,22.06
2018-05-25T07:23:06.415Z,23.95
2018-05-25T07:25:34.468Z,23.42
2018-05-25T07:28:02.513Z,23.25
2018-05-25T07:30:30.526Z,24.32
2018-05-25T07:32:58.613Z,22.42
2018-05-25T07:35:26.784Z,24.33
2018-05-25T07:37:54.808Z,22.58
2018-05-25T07:40:23.355Z,21.64
2018-05-25T07:42:51.491Z,21.53
2018-05-25T07:45:19.512Z,21.71
2018-05-25T07:47:47.547Z,21.89
2018-05-25T07:50:15.567Z,21.19
2018-05-25T07:52:43.679Z,21.12
2018-05-25T07:55:11.703Z,21.61
2018-05-25T07:57:39.840Z,22.21
2018-05-25T08:00:07.815Z,21.42
2018-05-25T08:02:35.848Z,21.46
2018-05-25T08:05:04.420Z,21.48
2018-05-25T08:07:32.459Z,21.92
2018-05-25T08:10:00.464Z,22.17
2018-05-25T08:12:28.659Z,21.95
2018-05-25T08:14:56.936Z,22.28
2018-05-25T08:17:24.975Z,23.13
2018-05-25T08:19:53.008Z,23.49
2018-05-25T08:22:21.032Z,22.20
2018-05-25T08:24:49.044Z,22.09
2018-05-25T08:27:17.070Z,23.03
2018-05-25T08:29:45.275Z,23.03
2018-05-25T08:32:13.308Z,24.50
2018-05-25T08:34:41.391Z,24.95
2018-05-25T08:37:09.414Z,25.00
2018-05-25T08:39:37.424Z,24.90
2018-05-25T08:42:05.463Z,24.90
2018-05-25T08:44:33.477Z,24.77
2018-05-25T08:47:01.572Z,25.73
2018-05-25T08:49:29.940Z,25.30
2018-05-25T08:51:58.300Z,24.70
2018-05-25T08:54:26.307Z,24.56
2018-05-25T08:56:54.348Z,25.06
2018-05-25T08:59:23.350Z,25.41
2018-05-25T09:01:51.440Z,26.79
2018-05-25T09:04:19.687Z,25.97
2018-05-25T09:06:48.647Z,24.50
2018-05-25T09:09:16.903Z,23.92
2018-05-25T09:11:44.894Z,24.53
2018-05-25T09:14:13.099Z,24.56
2018-05-25T09:16:41.267Z,24.02
2018-05-25T09:19:09.295Z,23.95
2018-05-25T09:21:37.361Z,25.70
2018-05-25T09:24:05.368Z,25.34
2018-05-25T09:26:33.366Z,24.43
2018-05-25T09:29:01.392Z,24.08
2018-05-25T09:31:29.458Z,25.46
2018-05-25T09:33:57.768Z,26.43
2018-05-25T09:36:25.803Z,26.11
2018-05-25T09:38:53.910Z,26.09
2018-05-25T09:41:21.919Z,23.63
2018-05-25T09:43:50.048Z,23.28
2018-05-25T09:46:18.410Z,24.45
2018-05-25T09:48:46.730Z,25.09
2018-05-25T09:51:14.734Z,26.47
2018-05-25T09:53:43.051Z,25.66
2018-05-25T09:56:11.111Z,27.63
2018-05-25T09:58:39.227Z,28.89
2018-05-25T10:01:07.251Z,25.25
2018-05-25T10:03:35.285Z,24.56
2018-05-25T10:06:03.417Z,25.30
2018-05-25T10:08:31.797Z,26.20
2018-05-25T10:10:59.799Z,24.43
2018-05-25T10:13:27.824Z,25.64
2018-05-25T10:15:55.840Z,25.67
2018-05-25T10:18:23.867Z,26.55
2018-05-25T10:20:51.885Z,26.96
2018-05-25T10:23:20.111Z,27.80
2018-05-25T10:25:48.291Z,27.23
2018-05-25T10:28:16.308Z,25.25
2018-05-25T10:30:44.419Z,27.22
2018-05-25T10:33:12.620Z,26.48
2018-05-25T10:35:40.643Z,28.95
2018-05-25T10:38:08.647Z,26.29
2018-05-25T10:40:37.121Z,26.48
2018-05-25T10:43:05.395Z,28.47
2018-05-25T10:45:33.438Z,25.48
2018-05-25T10:48:01.588Z,25.92
2018-05-25T10:50:29.615Z,27.13
2018-05-25T10:52:57.629Z,27.89
2018-05-25T10:55:25.758Z,28.91
2018-05-25T10:57:53.923Z,28.58
2018-05-25T11:00:22.078Z,28.50
2018-05-25T11:02:50.079Z,26.96
2018-05-25T11:05:18.110Z,27.22
2018-05-25T11:07:46.303Z,26.93
2018-05-25T11:10:14.583Z,25.84
2018-05-25T11:12:42.747Z,26.02
2018-05-25T11:15:10.775Z,24.21
2018-05-25T11:17:38.985Z,24.22
2018-05-25T11:20:06.991Z,24.15
2018-05-25T11:22:35.064Z,25.24
2018-05-25T11:25:03.073Z,24.40
2018-05-25T11:27:31.279Z,25.07
2018-05-25T11:29:59.359Z,24.36
2018-05-25T11:32:27.363Z,24.39
2018-05-25T11:34:56.838Z,24.89
2018-05-25T11:37:24.847Z,24.52
2018-05-25T11:39:52.867Z,25.15
2018-05-25T11:42:20.884Z,25.97
2018-05-25T11:44:48.898Z,25.29
2018-05-25T11:47:16.911Z,24.84
2018-05-25T11:49:45.159Z,24.85
2018-05-25T11:52:13.167Z,24.90
2018-05-25T11:54:41.192Z,25.13
2018-05-25T11:57:09.188Z,25.75
2018-05-25T11:59:37.203Z,25.97
2018-05-25T12:02:05.197Z,24.75
2018-05-25T12:04:33.205Z,25.92
2018-05-25T12:07:01.227Z,25.44
2018-05-25T12:09:29.223Z,26.23
2018-05-25T12:11:57.392Z,26.00
2018-05-25T12:14:26.088Z,25.01
2018-05-25T12:16:54.424Z,25.44
2018-05-25T12:19:22.398Z,25.98
2018-05-25T12:21:50.588Z,25.39
2018-05-25T12:24:18.629Z,25.44
2018-05-25T12:26:46.635Z,25.96
2018-05-25T12:29:15.307Z,26.09
2018-05-25T12:31:43.324Z,25.84
2018-05-25T12:34:11.323Z,25.82
2018-05-25T12:36:39.727Z,26.33
2018-05-25T12:39:07.740Z,26.73
2018-05-25T12:41:35.887Z,26.85
2018-05-25T12:44:03.884Z,26.34
2018-05-25T12:46:31.906Z,26.65
2018-05-25T12:49:00.394Z,27.06
2018-05-25T12:51:28.559Z,27.27
2018-05-25T12:53:56.567Z,26.61
2018-05-25T12:56:24.579Z,25.86
2018-05-25T12:58:52.784Z,25.39
2018-05-25T13:01:20.803Z,25.38
2018-05-25T13:03:49.516Z,26.41
2018-05-25T13:06:17.819Z,26.72
2018-05-25T13:08:45.904Z,26.97
2018-05-25T13:11:14.366Z,27.32
2018-05-25T13:13:42.379Z,27.31
2018-05-25T13:16:10.403Z,27.47
2018-05-25T13:18:38.397Z,27.70
2018-05-25T13:21:06.415Z,26.29
2018-05-25T13:23:35.101Z,26.58
2018-05-25T13:26:03.137Z,26.96
2018-05-25T13:28:31.166Z,27.19
2018-05-25T13:30:59.199Z,27.35
2018-05-25T13:33:27.199Z,27.37
2018-05-25T13:35:55.368Z,27.45
2018-05-25T13:38:23.608Z,26.39
2018-05-25T13:40:51.844Z,26.34
2018-05-25T13:43:20.107Z,26.27
2018-05-25T13:45:48.240Z,26.45
2018-05-25T13:48:16.241Z,26.93
2018-05-25T13:50:44.234Z,27.25
2018-05-25T13:53:12.251Z,26.94
2018-05-25T13:55:40.803Z,26.96
2018-05-25T13:58:09.049Z,27.23
2018-05-25T14:00:37.251Z,26.26
2018-05-25T14:03:05.290Z,26.98
2018-05-25T14:05:33.273Z,26.81
2018-05-25T14:08:01.551Z,26.99
2018-05-25T14:10:29.549Z,27.15
2018-05-25T14:12:57.570Z,27.07
2018-05-25T14:15:25.568Z,27.35
2018-05-25T14:17:53.737Z,27.60
2018-05-25T14:20:22.369Z,27.70
2018-05-25T14:22:50.627Z,27.52
2018-05-25T14:25:18.652Z,27.73
2018-05-25T14:27:46.693Z,27.69
2018-05-25T14:30:14.710Z,27.38
2018-05-25T14:32:42.726Z,27.47
2018-05-25T14:35:11.040Z,26.85
2018-05-25T14:37:39.063Z,27.16
2018-05-25T14:40:07.054Z,27.38
2018-05-25T14:42:35.073Z,27.61
2018-05-25T14:45:03.967Z,26.91
2018-05-25T14:47:32.209Z,26.56
2018-05-25T14:50:00.477Z,26.63
2018-05-25T14:52:28.501Z,26.91
2018-05-25T14:54:56.718Z,27.30
2018-05-25T14:57:24.714Z,27.43
2018-05-25T14:59:52.875Z,27.38
2018-05-25T15:02:20.879Z,26.55
2018-05-25T15:04:48.973Z,26.60
2018-05-25T15:07:16.981Z,26.48
2018-05-25T15:09:45.020Z,26.73
2018-05-25T15:12:13.004Z,27.22
2018-05-25T15:14:40.999Z,26.82
2018-05-25T15:17:09.024Z,27.08
2018-05-25T15:19:37.032Z,26.62
2018-05-25T15:22:05.043Z,26.99
2018-05-25T15:24:33.045Z,27.17
2018-05-25T15:27:01.101Z,27.13
2018-05-25T15:29:29.143Z,27.40
2018-05-25T15:31:57.129Z,27.41
2018-05-25T15:34:25.163Z,26.99
2018-05-25T15:36:53.945Z,26.47
2018-05-25T15:39:21.959Z,26.84
2018-05-25T15:41:49.969Z,27.02
2018-05-25T15:46:53.259Z,27.11
2018-05-25T15:49:21.288Z,27.22
2018-05-25T15:51:49.291Z,27.08
2018-05-25T15:54:17.436Z,27.00
2018-05-25T15:56:45.908Z,26.87
2018-05-25T15:59:13.936Z,27.12
2018-05-25T16:01:41.993Z,27.04
2018-05-25T16:04:10.120Z,26.84
2018-05-25T16:06:38.188Z,27.24
2018-05-25T16:09:06.354Z,26.81
2018-05-25T16:11:34.451Z,26.67
2018-05-25T16:14:02.542Z,26.27
2018-05-25T16:16:30.639Z,26.36
2018-05-25T16:18:58.762Z,26.26
2018-05-25T16:21:26.901Z,26.64
2018-05-25T16:23:55.942Z,26.93
2018-05-25T16:26:24.404Z,26.94
2018-05-25T16:28:52.651Z,27.17
2018-05-25T16:31:20.844Z,27.11
2018-05-25T16:33:48.869Z,26.81
2018-05-25T16:36:16.910Z,26.73
2018-05-25T16:38:45.025Z,26.48
2018-05-25T16:41:12.990Z,26.79
2018-05-25T16:43:41.010Z,26.50
2018-05-25T16:46:09.024Z,26.78
2018-05-25T16:48:37.048Z,26.85
2018-05-25T16:51:05.071Z,26.86
2018-05-25T16:53:33.091Z,26.86
2018-05-25T16:56:01.140Z,26.87
2018-05-25T16:58:29.132Z,26.67
2018-05-25T17:00:57.144Z,26.52
2018-05-25T17:03:25.160Z,26.50
2018-05-25T17:05:53.985Z,26.80
2018-05-25T17:08:21.974Z,26.47
2018-05-25T17:10:50.184Z,26.61
2018-05-25T17:13:18.179Z,26.66
2018-05-25T17:15:46.197Z,26.66
2018-05-25T17:18:14.789Z,26.62
2018-05-25T17:20:42.796Z,26.67
2018-05-25T17:23:10.820Z,26.32
2018-05-25T17:25:38.992Z,26.26
2018-05-25T17:28:07.263Z,26.32
2018-05-25T17:30:35.749Z,26.43
2018-05-25T17:33:03.760Z,26.43
2018-05-25T17:35:32.251Z,26.52
2018-05-25T17:38:00.265Z,26.44
2018-05-25T17:40:28.291Z,26.50
2018-05-25T17:42:56.319Z,26.40
2018-05-25T17:45:24.436Z,26.42
2018-05-25T17:47:52.557Z,26.28
2018-05-25T17:50:20.559Z,26.24
2018-05-25T17:52:48.563Z,26.21
2018-05-25T17:55:16.593Z,26.16
2018-05-25T17:57:44.599Z,26.04
2018-05-25T18:00:12.611Z,26.06
2018-05-25T18:02:40.968Z,25.96
2018-05-25T18:05:08.983Z,25.97
2018-05-25T18:07:37.239Z,25.89
2018-05-25T18:10:05.283Z,25.67
2018-05-25T18:12:33.795Z,25.65
2018-05-25T18:15:02.056Z,25.58
2018-05-25T18:17:30.079Z,25.54
2018-05-25T18:19:58.111Z,25.48
2018-05-25T18:22:26.128Z,25.40
2018-05-25T18:24:57.431Z,25.28
2018-05-25T18:27:25.427Z,25.20
2018-05-25T18:29:53.451Z,25.12
2018-05-25T18:32:21.463Z,25.12
2018-05-25T18:34:49.908Z,25.01
2018-05-25T18:37:17.911Z,25.02
2018-05-25T18:39:45.925Z,24.90
2018-05-25T18:42:13.924Z,24.82
2018-05-25T18:44:42.081Z,24.81
2018-05-25T18:47:10.079Z,24.71
2018-05-25T18:49:38.093Z,24.60
2018-05-25T18:52:06.099Z,24.60
2018-05-25T18:54:34.259Z,24.57
2018-05-25T18:57:02.272Z,24.57
2018-05-25T18:59:30.279Z,24.54
2018-05-25T19:01:58.291Z,24.39
2018-05-25T19:04:26.322Z,24.23
2018-05-25T19:06:54.340Z,24.25
2018-05-25T19:09:22.603Z,24.19
2018-05-25T19:11:50.875Z,24.08
2018-05-25T19:14:18.893Z,24.11
2018-05-25T19:16:46.888Z,23.96
2018-05-25T19:19:15.196Z,23.90
2018-05-25T19:21:43.205Z,23.66
2018-05-25T19:24:11.235Z,23.51
2018-05-25T19:26:39.262Z,23.65
2018-05-25T19:29:07.293Z,23.65
2018-05-25T19:31:36.304Z,23.59
2018-05-25T19:34:04.315Z,23.56
2018-05-25T19:36:32.608Z,23.56
2018-05-25T19:39:00.615Z,23.42
2018-05-25T19:41:28.743Z,23.31
2018-05-25T19:43:56.967Z,23.29
2018-05-25T19:46:25.008Z,23.25
2018-05-25T19:48:53.015Z,23.16
2018-05-25T19:51:21.898Z,23.12
2018-05-25T19:53:49.902Z,23.04
2018-05-25T19:56:18.094Z,23.03
2018-05-25T19:58:46.106Z,23.09
2018-05-25T20:01:14.229Z,23.08
2018-05-25T20:03:42.272Z,23.02
2018-05-25T20:06:10.296Z,23.01
2018-05-25T20:08:38.487Z,23.07
2018-05-25T20:11:06.504Z,23.07
2018-05-25T20:13:34.694Z,23.04
2018-05-25T20:16:02.869Z,22.98
2018-05-25T20:18:30.880Z,22.98
2018-05-25T20:20:58.899Z,22.98
2018-05-25T20:23:26.911Z,22.96
2018-05-25T20:25:55.055Z,22.85
2018-05-25T20:28:23.065Z,22.79
2018-05-25T20:30:51.191Z,22.80
2018-05-25T20:33:19.601Z,22.73
2018-05-25T20:35:47.623Z,22.71
2018-05-25T20:38:15.754Z,22.69
2018-05-25T20:40:43.771Z,22.63
2018-05-25T20:43:12.028Z,22.51
2018-05-25T20:45:40.329Z,22.48
2018-05-25T20:48:08.339Z,22.41
2018-05-25T20:50:36.360Z,22.33
2018-05-25T20:53:04.405Z,22.27
2018-05-25T20:55:32.616Z,22.29
2018-05-25T20:58:00.620Z,22.34
2018-05-25T21:00:28.713Z,22.33
2018-05-25T21:02:57.240Z,22.26
2018-05-25T21:05:25.434Z,22.26
2018-05-25T21:07:53.439Z,22.20
2018-05-25T21:10:21.455Z,22.15
2018-05-25T21:12:49.627Z,22.12
2018-05-25T21:15:17.752Z,22.08
2018-05-25T21:17:45.774Z,22.07
2018-05-25T21:20:13.752Z,22.04
2018-05-25T21:22:41.766Z,21.95
2018-05-25T21:25:10.271Z,21.95
2018-05-25T21:27:38.326Z,21.76
2018-05-25T21:30:06.346Z,21.91
2018-05-25T21:32:34.341Z,21.86
2018-05-25T21:35:02.341Z,21.84
2018-05-25T21:37:30.381Z,21.84
2018-05-25T21:39:58.364Z,21.84
2018-05-25T21:42:26.375Z,21.74
2018-05-25T21:44:56.000Z,21.71
2018-05-25T21:47:24.174Z,21.60
2018-05-25T21:49:52.564Z,21.64
2018-05-25T21:52:20.569Z,21.61
2018-05-25T21:54:48.596Z,21.54
2018-05-25T21:57:16.617Z,21.54
2018-05-25T21:59:44.612Z,21.53
2018-05-25T22:02:12.623Z,21.46
2018-05-25T22:04:40.803Z,21.34
2018-05-25T22:07:08.986Z,21.43
2018-05-25T22:09:37.699Z,21.42
2018-05-25T22:12:05.716Z,21.27
2018-05-25T22:14:33.895Z,21.29
2018-05-25T22:17:02.028Z,21.21
2018-05-25T22:19:30.027Z,21.19
2018-05-25T22:21:58.063Z,21.16
2018-05-25T22:24:26.084Z,21.11
2018-05-25T22:26:54.099Z,21.17
2018-05-25T22:29:22.087Z,21.05
2018-05-25T22:31:50.107Z,21.01
2018-05-25T22:34:18.335Z,20.96
2018-05-25T22:36:46.352Z,20.84
2018-05-25T22:39:14.350Z,20.85
2018-05-25T22:41:42.355Z,20.85
2018-05-25T22:44:21.967Z,20.76
2018-05-25T22:47:01.880Z,20.77
2018-05-25T22:49:41.761Z,20.73
2018-05-25T22:52:21.894Z,20.73
2018-05-25T22:54:55.418Z,20.72
2018-05-25T22:57:23.618Z,20.66
2018-05-25T22:59:51.880Z,20.57
2018-05-25T23:02:19.903Z,20.52
2018-05-25T23:04:48.090Z,20.49
2018-05-25T23:07:16.094Z,20.42
2018-05-25T23:09:44.127Z,20.41
2018-05-25T23:12:12.145Z,20.37
2018-05-25T23:14:40.168Z,20.16
2018-05-25T23:17:08.208Z,20.06
2018-05-25T23:19:36.215Z,19.82
2018-05-25T23:22:04.222Z,19.69
2018-05-25T23:24:32.222Z,19.77
2018-05-25T23:27:00.248Z,20.00
2018-05-25T23:29:28.368Z,19.98
2018-05-25T23:31:56.389Z,19.86
2018-05-25T23:34:24.381Z,19.90
2018-05-25T23:36:52.415Z,19.93
2018-05-25T23:39:20.406Z,19.84
2018-05-25T23:41:48.411Z,19.55
2018-05-25T23:44:16.444Z,19.61
2018-05-25T23:46:44.611Z,19.53
2018-05-25T23:49:12.806Z,19.59
2018-05-25T23:51:40.810Z,19.47
2018-05-25T23:54:09.023Z,19.49
2018-05-25T23:56:37.238Z,19.57
2018-05-25T23:59:06.031Z,19.50
